Time;durP1;ratioP1;P1;durP2;ratioP2;P2;SDS_P1;SDS_P2;PMS_P1;PMS_P2;Temp;Humidity;BMP_temperature;BMP_pressure;BME280_temperature;BME280_humidity;BME280_pressure;Samples;Min_cycle;Max_cycle;Signal;HPM_P1;HPM_P2
2021/01/21 00:01:21;;;;;;;19.48;12.35;;;;;;;4.75;54.59;94469.31;4965812;28;20511;-76
2021/01/21 00:03:47;;;;;;;20.23;13.05;;;;;;;4.72;54.51;94458.53;4955269;28;20042;-76
2021/01/21 00:06:13;;;;;;;19.52;12.65;;;;;;;4.71;54.59;94473.44;4965089;28;20591;-76
2021/01/21 00:08:38;;;;;;;20.52;12.65;;;;;;;4.65;54.39;94469.16;4967359;28;20253;-76
2021/01/21 00:11:04;;;;;;;24.63;15.90;;;;;;;4.61;54.44;94462.78;4966865;28;21170;-76
2021/01/21 00:13:29;;;;;;;18.13;13.43;;;;;;;4.58;54.75;94473.75;4962938;28;20042;-76
2021/01/21 00:15:55;;;;;;;20.08;14.88;;;;;;;4.59;54.86;94470.09;4967369;28;20039;-77
2021/01/21 00:18:20;;;;;;;21.45;13.60;;;;;;;4.48;54.93;94473.56;4963823;28;20076;-76
2021/01/21 00:20:46;;;;;;;21.20;12.68;;;;;;;4.46;55.26;94474.81;4962007;28;20364;-76
2021/01/21 00:23:11;;;;;;;20.75;11.85;;;;;;;4.37;55.52;94477.00;4965880;28;20545;-77
2021/01/21 00:25:37;;;;;;;19.77;12.13;;;;;;;4.43;55.38;94483.94;4961336;28;20113;-77
2021/01/21 00:28:02;;;;;;;21.38;13.40;;;;;;;4.46;55.30;94480.84;4963743;28;20034;-76
2021/01/21 00:30:28;;;;;;;22.88;13.88;;;;;;;4.43;55.51;94476.09;4965724;28;20042;-77
2021/01/21 00:32:54;;;;;;;20.83;13.20;;;;;;;4.38;55.43;94470.75;4962089;28;20023;-77
2021/01/21 00:35:20;;;;;;;19.65;12.82;;;;;;;4.38;55.34;94462.91;4962606;28;20467;-77
2021/01/21 00:37:45;;;;;;;18.95;13.20;;;;;;;4.32;55.50;94464.63;4965905;28;20043;-76
2021/01/21 00:40:11;;;;;;;19.25;11.40;;;;;;;4.28;55.71;94467.94;4960951;28;20101;-76
2021/01/21 00:42:37;;;;;;;20.48;12.45;;;;;;;4.29;55.81;94472.97;4963030;28;21146;-77
2021/01/21 00:45:03;;;;;;;21.48;13.35;;;;;;;4.32;55.81;94476.91;4961419;28;20033;-77
2021/01/21 00:47:29;;;;;;;20.10;13.95;;;;;;;4.18;55.63;94447.63;4964487;28;20021;-76
2021/01/21 00:49:54;;;;;;;19.23;13.68;;;;;;;4.29;55.61;94459.06;4961625;28;20129;-77
2021/01/21 00:52:19;;;;;;;24.90;15.43;;;;;;;4.22;55.96;94459.22;4960702;28;20368;-76
2021/01/21 00:54:45;;;;;;;17.92;12.32;;;;;;;4.27;55.84;94455.88;4964270;28;20462;-77
2021/01/21 00:57:10;;;;;;;21.90;13.45;;;;;;;4.20;55.75;94455.25;4959567;28;20125;-77
2021/01/21 00:59:36;;;;;;;21.23;13.60;;;;;;;4.28;55.73;94454.88;4966967;28;20069;-78
2021/01/21 01:02:02;;;;;;;24.77;14.15;;;;;;;4.23;55.68;94452.94;4963580;28;20041;-77
2021/01/21 01:04:28;;;;;;;28.27;13.55;;;;;;;4.24;55.91;94435.44;4963977;28;20045;-78
2021/01/21 01:06:53;;;;;;;19.23;12.35;;;;;;;4.20;55.62;94429.09;4963760;28;20105;-78
2021/01/21 01:09:19;;;;;;;23.30;13.80;;;;;;;4.23;55.94;94433.84;4964446;28;20556;-78
2021/01/21 01:11:44;;;;;;;23.55;13.32;;;;;;;4.27;55.97;94427.09;4960114;28;20479;-77
2021/01/21 01:14:10;;;;;;;16.52;11.95;;;;;;;4.13;55.98;94429.22;4966773;28;20081;-77
2021/01/21 01:16:35;;;;;;;21.15;12.02;;;;;;;4.26;55.86;94433.38;4963636;28;20034;-78
2021/01/21 01:19:01;;;;;;;21.70;13.10;;;;;;;4.27;55.84;94421.88;4965510;28;20141;-78
2021/01/21 01:21:26;;;;;;;23.60;13.07;;;;;;;4.28;55.87;94431.31;4962408;28;20035;-78
2021/01/21 01:23:52;;;;;;;23.55;12.20;;;;;;;4.30;55.73;94426.66;4963763;28;20399;-78
2021/01/21 01:26:20;;;;;;;19.45;12.40;;;;;;;4.24;55.84;94419.75;4966504;28;20038;-78
2021/01/21 01:28:46;;;;;;;25.90;13.40;;;;;;;4.23;55.90;94428.59;4962722;28;20039;-78
2021/01/21 01:31:11;;;;;;;17.80;12.52;;;;;;;4.26;55.88;94422.91;4964879;28;20090;-78
2021/01/21 01:33:36;;;;;;;21.20;14.00;;;;;;;4.23;55.79;94408.47;4959537;28;20085;-78
2021/01/21 01:36:03;;;;;;;17.25;13.32;;;;;;;4.27;56.06;94416.66;4964594;28;20026;-78
2021/01/21 01:38:29;;;;;;;22.20;12.55;;;;;;;4.24;56.03;94417.13;4964276;28;20057;-78
2021/01/21 01:40:54;;;;;;;19.15;12.75;;;;;;;4.28;55.91;94421.66;4962260;28;20035;-78
2021/01/21 01:43:19;;;;;;;18.95;12.88;;;;;;;4.27;55.80;94414.81;4960735;28;20506;-78
2021/01/21 01:45:45;;;;;;;18.17;11.80;;;;;;;4.29;55.58;94419.84;4965281;28;20082;-78
2021/01/21 01:48:10;;;;;;;19.10;11.80;;;;;;;4.28;55.59;94418.25;4964485;28;20035;-78
2021/01/21 01:50:37;;;;;;;21.17;12.25;;;;;;;4.30;55.76;94424.03;4964724;28;20513;-78
2021/01/21 01:53:03;;;;;;;19.67;12.43;;;;;;;4.20;55.81;94424.63;4962353;28;20753;-79
2021/01/21 01:55:29;;;;;;;18.85;11.35;;;;;;;4.17;56.00;94424.31;4960119;28;20458;-78
2021/01/21 01:57:55;;;;;;;20.17;11.73;;;;;;;4.12;55.98;94429.44;4964608;28;20045;-78
2021/01/21 02:00:22;;;;;;;21.00;13.15;;;;;;;4.10;56.50;94427.06;4959973;28;20093;-77
2021/01/21 02:02:51;;;;;;;20.13;12.55;;;;;;;4.05;56.39;94416.50;4966255;28;20025;-78
2021/01/21 02:05:18;;;;;;;14.00;11.20;;;;;;;4.14;56.15;94430.00;4965172;28;20066;-78
2021/01/21 02:07:44;;;;;;;30.70;17.60;;;;;;;4.12;56.20;94406.69;4963300;28;20092;-78
2021/01/21 02:10:11;;;;;;;30.65;17.20;;;;;;;4.09;56.19;94406.38;4964145;28;20206;-78
2021/01/21 02:12:55;;;;;;;32.10;18.88;;;;;;;3.99;56.30;94408.78;4965531;28;20157;-78
2021/01/21 02:15:47;;;;;;;38.58;22.73;;;;;;;4.01;56.47;94394.44;4978998;28;20088;-78
2021/01/21 02:18:42;;;;;;;20.50;11.52;;;;;;;4.11;56.29;94409.53;4960957;28;20093;-78
2021/01/21 02:21:29;;;;;;;16.75;10.15;;;;;;;4.07;56.25;94403.19;4963063;28;20038;-78
2021/01/21 02:24:29;;;;;;;15.80;10.20;;;;;;;4.11;56.24;94414.75;4962162;28;20057;-78
2021/01/21 02:26:58;;;;;;;18.35;11.57;;;;;;;4.08;56.55;94394.31;4960844;28;20026;-78
2021/01/21 02:29:32;;;;;;;19.25;11.90;;;;;;;4.08;56.54;94402.16;4965416;28;20022;-78
2021/01/21 02:32:07;;;;;;;18.83;11.32;;;;;;;4.13;56.24;94402.25;4960088;28;20080;-77
2021/01/21 02:34:32;;;;;;;21.25;12.80;;;;;;;4.10;56.33;94397.50;4960647;28;20046;-77
2021/01/21 02:37:00;;;;;;;19.48;12.10;;;;;;;4.09;56.40;94409.00;4964470;28;20463;-77
2021/01/21 02:39:29;;;;;;;20.42;10.38;;;;;;;4.04;56.48;94401.03;4961096;28;20039;-77
2021/01/21 02:41:54;;;;;;;20.60;11.27;;;;;;;4.12;56.39;94408.50;4961641;28;20023;-77
2021/01/21 02:44:20;;;;;;;18.08;11.18;;;;;;;4.04;56.63;94401.84;4962095;28;20019;-77
2021/01/21 02:46:48;;;;;;;16.17;11.75;;;;;;;4.02;56.33;94409.13;4961309;28;20046;-78
2021/01/21 02:49:14;;;;;;;16.05;11.25;;;;;;;4.00;56.69;94403.34;4959791;28;20054;-78
2021/01/21 02:51:52;;;;;;;21.70;12.10;;;;;;;4.05;56.37;94400.03;4968459;28;20042;-77
2021/01/21 02:54:40;;;;;;;16.70;10.50;;;;;;;4.05;56.38;94406.06;4961514;28;20038;-78
2021/01/21 02:57:18;;;;;;;17.35;10.73;;;;;;;4.02;56.36;94410.94;4953378;28;20030;-77
2021/01/21 02:59:44;;;;;;;22.42;14.07;;;;;;;4.02;57.07;94392.63;4973945;28;20122;-77
2021/01/21 03:02:12;;;;;;;20.67;13.50;;;;;;;4.05;56.81;94400.03;4964291;28;20034;-77
2021/01/21 03:04:39;;;;;;;22.77;15.85;;;;;;;4.06;56.53;94391.94;4959268;28;20140;-78
2021/01/21 03:07:09;;;;;;;22.70;14.45;;;;;;;4.10;56.25;94398.31;4961873;28;20037;-77
2021/01/21 03:09:35;;;;;;;23.50;16.10;;;;;;;4.14;56.09;94393.38;4963079;28;20405;-77
2021/01/21 03:12:19;;;;;;;22.75;15.43;;;;;;;4.11;56.13;94388.59;4963844;28;20058;-79
2021/01/21 03:14:46;;;;;;;22.55;14.82;;;;;;;4.09;55.98;94401.16;4962212;28;20026;-79
2021/01/21 03:17:12;;;;;;;25.40;13.68;;;;;;;4.09;56.07;94390.69;4962957;28;20022;-79
2021/01/21 03:19:37;;;;;;;22.75;14.88;;;;;;;4.15;55.84;94408.88;4961013;28;20058;-79
2021/01/21 03:22:03;;;;;;;21.65;13.57;;;;;;;4.14;55.75;94396.00;4959632;28;20141;-79
2021/01/21 03:24:29;;;;;;;20.77;13.75;;;;;;;4.10;55.84;94408.75;4965959;28;20050;-78
2021/01/21 03:26:55;;;;;;;23.33;14.05;;;;;;;4.13;55.78;94403.06;4965971;28;20038;-78
2021/01/21 03:29:20;;;;;;;26.58;18.90;;;;;;;4.08;56.23;94416.03;4969837;28;20077;-77
2021/01/21 03:31:46;;;;;;;34.20;22.67;;;;;;;4.05;56.37;94413.09;4963890;28;20046;-80
2021/01/21 03:34:11;;;;;;;33.20;20.58;;;;;;;4.05;56.06;94416.50;4967669;28;20105;-78
2021/01/21 03:36:37;;;;;;;27.85;19.25;;;;;;;4.02;56.09;94413.56;4965995;28;20046;-80
2021/01/21 03:39:04;;;;;;;33.13;21.80;;;;;;;4.03;55.97;94415.16;4964819;28;20177;-79
2021/01/21 03:41:29;;;;;;;35.95;21.15;;;;;;;3.98;56.10;94409.81;4967975;28;20432;-79
2021/01/21 03:43:55;;;;;;;34.35;20.75;;;;;;;4.00;56.42;94418.22;4965957;28;20034;-79
2021/01/21 03:46:20;;;;;;;35.58;20.35;;;;;;;4.02;56.26;94421.41;4964270;28;20097;-79
2021/01/21 03:48:46;;;;;;;36.58;20.15;;;;;;;3.95;56.35;94405.06;4968428;28;20027;-79
2021/01/21 03:51:12;;;;;;;32.60;18.27;;;;;;;4.02;56.13;94414.34;4962999;28;20042;-78
2021/01/21 03:53:37;;;;;;;27.33;19.38;;;;;;;4.01;56.11;94412.00;4965757;28;20118;-80
2021/01/21 03:56:03;;;;;;;30.33;18.17;;;;;;;3.99;55.90;94403.56;4967383;28;20067;-79
2021/01/21 03:58:28;;;;;;;29.88;17.95;;;;;;;4.00;56.41;94407.78;4965269;28;20038;-80
2021/01/21 04:00:54;;;;;;;26.25;17.63;;;;;;;3.96;56.73;94406.66;4969415;28;20046;-79
2021/01/21 04:03:19;;;;;;;27.42;17.30;;;;;;;3.95;56.07;94407.69;4963631;28;20086;-77
2021/01/21 04:05:45;;;;;;;26.60;17.27;;;;;;;3.95;56.03;94411.09;4967194;28;20011;-79
2021/01/21 04:08:10;;;;;;;25.45;16.42;;;;;;;3.93;56.15;94418.34;4967961;28;20048;-79
2021/01/21 04:10:35;;;;;;;33.55;18.17;;;;;;;3.92;55.96;94417.56;4965796;28;20686;-79
2021/01/21 04:13:01;;;;;;;30.40;18.55;;;;;;;3.79;56.48;94415.22;4964168;28;20039;-80
2021/01/21 04:15:26;;;;;;;29.75;19.08;;;;;;;3.92;56.43;94427.22;4963778;28;20513;-80
2021/01/21 04:17:51;;;;;;;28.88;18.92;;;;;;;3.86;56.20;94423.72;4964537;28;20093;-80
2021/01/21 04:20:17;;;;;;;31.05;19.30;;;;;;;3.87;56.24;94430.53;4966102;28;20038;-80
2021/01/21 04:22:42;;;;;;;28.63;18.80;;;;;;;3.85;56.21;94426.56;4965255;28;20039;-78
2021/01/21 04:25:08;;;;;;;39.08;23.40;;;;;;;3.86;56.04;94428.94;4962024;28;20487;-79
2021/01/21 04:27:34;;;;;;;34.83;21.80;;;;;;;3.93;55.89;94434.03;4966244;28;20050;-80
2021/01/21 04:29:59;;;;;;;42.88;26.60;;;;;;;3.90;55.99;94431.91;4963017;28;20475;-79
2021/01/21 04:32:24;;;;;;;47.58;27.27;;;;;;;3.84;56.79;94420.56;4965869;28;20096;-77
2021/01/21 04:34:50;;;;;;;47.45;27.35;;;;;;;3.75;56.83;94415.91;4962417;28;20049;-79
2021/01/21 04:37:15;;;;;;;43.72;27.73;;;;;;;3.78;56.68;94429.31;4961888;28;20149;-80
2021/01/21 04:39:41;;;;;;;46.55;28.80;;;;;;;3.80;56.69;94434.31;4965023;28;20034;-79
2021/01/21 04:42:06;;;;;;;42.80;27.83;;;;;;;3.65;57.74;94432.19;4963580;28;20042;-78
2021/01/21 04:44:32;;;;;;;38.55;24.48;;;;;;;3.54;58.96;94435.59;4968945;28;20081;-80
2021/01/21 04:46:59;;;;;;;33.85;23.35;;;;;;;3.55;58.61;94423.34;4963626;28;20128;-78
2021/01/21 04:49:27;;;;;;;34.20;22.58;;;;;;;3.62;58.40;94432.63;4965721;28;20035;-78
2021/01/21 04:51:58;;;;;;;36.22;22.13;;;;;;;3.61;58.07;94438.91;4962687;28;20043;-78
2021/01/21 04:54:28;;;;;;;34.90;20.80;;;;;;;3.54;57.92;94433.00;4964678;28;20066;-78
2021/01/21 04:56:59;;;;;;;30.42;19.40;;;;;;;3.56;57.94;94438.78;4962630;28;20030;-78
2021/01/21 04:59:29;;;;;;;30.63;19.85;;;;;;;3.63;57.84;94433.41;4972053;28;20023;-78
2021/01/21 05:01:55;;;;;;;30.98;17.38;;;;;;;3.62;57.58;94447.50;4964291;28;20815;-78
2021/01/21 05:04:21;;;;;;;28.67;16.30;;;;;;;3.68;57.68;94443.97;4960404;28;20042;-78
2021/01/21 05:06:46;;;;;;;29.60;18.42;;;;;;;3.67;57.90;94432.72;4964348;28;20100;-78
2021/01/21 05:09:13;;;;;;;24.52;14.85;;;;;;;3.61;58.01;94420.59;4963492;28;20046;-77
2021/01/21 05:11:40;;;;;;;30.08;16.73;;;;;;;3.65;58.34;94432.19;4964963;28;20027;-78
2021/01/21 05:14:05;;;;;;;27.40;17.67;;;;;;;3.67;57.98;94424.88;4967390;28;20518;-78
2021/01/21 05:16:32;;;;;;;29.90;19.48;;;;;;;3.67;58.08;94427.50;4967940;28;20502;-78
2021/01/21 05:19:00;;;;;;;31.75;20.48;;;;;;;3.67;57.97;94426.72;4965570;28;20609;-77
2021/01/21 05:21:26;;;;;;;31.77;20.30;;;;;;;3.67;58.32;94426.72;4965291;28;20043;-78
2021/01/21 05:23:55;;;;;;;31.40;19.02;;;;;;;3.69;57.80;94435.13;4962984;28;20046;-78
2021/01/21 05:26:21;;;;;;;36.20;23.33;;;;;;;3.57;58.07;94419.44;4970277;28;20022;-78
2021/01/21 05:28:50;;;;;;;28.98;19.25;;;;;;;3.71;57.94;94420.03;4965963;28;20039;-78
2021/01/21 05:31:16;;;;;;;28.70;18.77;;;;;;;3.75;57.59;94421.94;4964408;28;20074;-78
2021/01/21 05:33:41;;;;;;;44.53;28.95;;;;;;;3.78;57.76;94412.81;4960960;28;20049;-78
2021/01/21 05:36:07;;;;;;;43.85;28.00;;;;;;;3.74;58.36;94424.78;4961612;28;20034;-78
2021/01/21 05:38:32;;;;;;;86.45;43.60;;;;;;;3.79;58.07;94422.25;4963715;28;20149;-78
2021/01/21 05:40:58;;;;;;;60.28;33.17;;;;;;;3.83;57.63;94428.63;4959699;28;20057;-79
2021/01/21 05:43:25;;;;;;;56.45;29.38;;;;;;;3.85;57.55;94416.91;4961943;28;20318;-80
2021/01/21 05:45:51;;;;;;;38.97;23.77;;;;;;;3.86;57.77;94428.94;4958620;28;20381;-79
2021/01/21 05:48:16;;;;;;;47.03;27.20;;;;;;;3.88;57.42;94432.13;4962793;28;20042;-80
2021/01/21 05:50:42;;;;;;;40.17;24.08;;;;;;;3.88;57.31;94426.91;4967487;28;20505;-79
2021/01/21 05:53:09;;;;;;;42.17;23.90;;;;;;;3.87;57.40;94420.06;4967481;28;20065;-79
2021/01/21 05:55:39;;;;;;;37.28;24.60;;;;;;;3.88;57.50;94416.44;4979008;28;20081;-79
2021/01/21 05:58:06;;;;;;;37.83;21.92;;;;;;;3.91;57.47;94426.44;4965437;28;20069;-81
2021/01/21 06:00:33;;;;;;;33.75;22.88;;;;;;;3.93;57.16;94431.44;4982858;28;20035;-80
2021/01/21 06:02:59;;;;;;;50.75;27.42;;;;;;;3.90;57.53;94418.84;4962493;28;20496;-80
2021/01/21 06:05:25;;;;;;;43.88;26.50;;;;;;;3.99;57.95;94427.91;4969036;28;20077;-79
2021/01/21 06:07:51;;;;;;;45.63;25.77;;;;;;;3.89;57.66;94414.63;4966111;28;20142;-79
2021/01/21 06:10:19;;;;;;;42.20;25.48;;;;;;;3.93;57.56;94424.38;4965814;28;20447;-80
2021/01/21 06:12:46;;;;;;;43.75;26.63;;;;;;;3.96;57.43;94422.34;4971270;28;20153;-80
2021/01/21 06:15:16;;;;;;;42.20;25.65;;;;;;;3.93;57.37;94423.59;4968445;28;20146;-79
2021/01/21 06:17:46;;;;;;;45.03;25.95;;;;;;;4.00;57.27;94426.09;4979836;28;20065;-81
2021/01/21 06:20:13;;;;;;;51.47;32.35;;;;;;;4.08;57.04;94430.94;4968816;28;20571;-80
2021/01/21 06:22:41;;;;;;;74.28;44.00;;;;;;;4.14;57.00;94435.25;4966589;28;20038;-79
2021/01/21 06:25:14;;;;;;;99.63;54.85;;;;;;;4.08;56.92;94423.88;4984120;28;20065;-80
2021/01/21 06:27:41;;;;;;;79.70;45.58;;;;;;;4.19;57.22;94437.94;4966387;28;20038;-80
2021/01/21 06:30:11;;;;;;;72.28;41.03;;;;;;;4.31;56.96;94442.09;4960938;28;20062;-79
2021/01/21 06:32:49;;;;;;;63.33;34.17;;;;;;;4.36;57.21;94444.03;4964956;28;20615;-79
2021/01/21 06:35:19;;;;;;;54.85;34.92;;;;;;;4.34;57.62;94438.25;4964743;28;20137;-80
2021/01/21 06:37:51;;;;;;;53.70;32.03;;;;;;;4.40;57.08;94439.13;4959734;28;20053;-80
2021/01/21 06:40:18;;;;;;;55.92;31.52;;;;;;;4.48;56.64;94436.13;4959625;28;20101;-80
2021/01/21 06:42:59;;;;;;;54.92;34.83;;;;;;;4.56;56.30;94433.91;4965681;28;20043;-80
2021/01/21 06:45:24;;;;;;;62.80;37.75;;;;;;;4.65;56.50;94437.72;4964158;28;20519;-80
2021/01/21 06:47:50;;;;;;;51.75;31.45;;;;;;;4.80;56.12;94445.84;4960437;28;20042;-79
2021/01/21 06:50:16;;;;;;;54.33;32.53;;;;;;;4.87;55.96;94430.00;4964128;28;20502;-80
2021/01/21 06:52:43;;;;;;;47.28;28.65;;;;;;;4.95;55.70;94437.44;4959680;28;20042;-79
2021/01/21 06:55:10;;;;;;;51.70;32.10;;;;;;;5.00;55.94;94419.19;4960416;28;20038;-80
2021/01/21 06:57:35;;;;;;;64.28;44.30;;;;;;;5.05;57.46;94429.75;4958927;28;20041;-79
2021/01/21 07:00:04;;;;;;;90.03;54.75;;;;;;;5.08;56.94;94415.41;4960523;28;20035;-79
2021/01/21 07:02:47;;;;;;;82.88;50.10;;;;;;;5.10;56.49;94408.88;4960565;28;20066;-80
2021/01/21 07:05:13;;;;;;;88.57;52.25;;;;;;;5.23;55.56;94432.13;4960213;28;20058;-80
2021/01/21 07:07:55;;;;;;;78.95;45.92;;;;;;;5.41;55.03;94441.56;4956318;28;20045;-80
2021/01/21 07:10:27;;;;;;;59.65;40.60;;;;;;;5.51;54.26;94435.66;4971574;28;20039;-79
2021/01/21 07:12:54;;;;;;;62.85;40.55;;;;;;;5.55;54.20;94428.91;4960648;28;20078;-80
2021/01/21 07:15:28;;;;;;;69.70;41.88;;;;;;;5.58;54.01;94434.44;4958125;28;20045;-80
2021/01/21 07:18:00;;;;;;;77.25;50.72;;;;;;;5.67;53.80;94435.63;4959042;28;20388;-81
2021/01/21 07:20:25;;;;;;;76.85;47.40;;;;;;;5.80;53.54;94441.56;4965584;28;20045;-80
2021/01/21 07:22:57;;;;;;;65.30;43.45;;;;;;;5.72;53.81;94434.13;4959384;28;20126;-78
2021/01/21 07:25:29;;;;;;;67.82;43.03;;;;;;;5.88;53.38;94447.19;4960295;28;20054;-78
2021/01/21 07:27:54;;;;;;;73.25;44.85;;;;;;;5.98;53.08;94451.78;4976212;28;20795;-78
2021/01/21 07:30:26;;;;;;;69.68;44.60;;;;;;;6.02;52.97;94450.25;4958759;28;20045;-78
2021/01/21 07:33:26;;;;;;;73.38;45.72;;;;;;;6.13;52.91;94454.59;4959172;28;20049;-78
2021/01/21 07:35:52;;;;;;;76.95;51.60;;;;;;;6.21;53.06;94445.47;4961360;28;20034;-79
2021/01/21 07:38:39;;;;;;;81.22;52.75;;;;;;;6.27;53.34;94455.81;4962620;28;20042;-78
2021/01/21 07:41:05;;;;;;;78.35;50.33;;;;;;;6.33;52.81;94446.94;4961903;28;20047;-78
2021/01/21 07:43:56;;;;;;;83.68;51.33;;;;;;;6.42;52.07;94442.06;4958897;28;21278;-78
2021/01/21 07:46:25;;;;;;;81.63;50.17;;;;;;;6.39;52.00;94432.84;4958278;28;20407;-78
2021/01/21 07:49:27;;;;;;;82.03;50.88;;;;;;;6.38;52.27;94451.47;4958551;28;20051;-76
2021/01/21 07:52:04;;;;;;;88.90;55.97;;;;;;;6.49;52.54;94456.59;4975411;28;20042;-77
2021/01/21 07:54:43;;;;;;;88.10;56.30;;;;;;;6.48;52.80;94431.38;4958476;28;20047;-78
2021/01/21 07:57:08;;;;;;;86.75;52.97;;;;;;;6.46;52.78;94443.94;4958600;28;20044;-78
2021/01/21 08:00:00;;;;;;;93.55;54.83;;;;;;;6.63;53.08;94448.31;4962816;28;20035;-76
2021/01/21 08:02:41;;;;;;;100.47;59.78;;;;;;;6.70;53.10;94444.44;4960978;28;20130;-77
2021/01/21 08:05:07;;;;;;;126.97;74.93;;;;;;;6.85;52.77;94446.41;4960092;28;20047;-77
2021/01/21 08:07:53;;;;;;;117.40;71.13;;;;;;;7.00;52.59;94441.28;4961902;28;20035;-78
2021/01/21 08:10:20;;;;;;;90.13;58.05;;;;;;;7.06;52.32;94442.91;4961357;28;20574;-76
2021/01/21 08:12:57;;;;;;;86.53;53.40;;;;;;;6.99;51.90;94426.56;4963608;28;20039;-77
2021/01/21 08:15:24;;;;;;;72.40;48.13;;;;;;;7.04;51.75;94429.22;4962150;28;20057;-77
2021/01/21 08:17:50;;;;;;;68.93;42.20;;;;;;;7.04;51.73;94416.09;4966064;28;20029;-77
2021/01/21 08:20:26;;;;;;;55.85;37.15;;;;;;;7.20;50.76;94435.41;4966213;28;20101;-77
2021/01/21 08:22:59;;;;;;;63.72;38.45;;;;;;;7.11;50.56;94421.94;4963754;28;20054;-77
2021/01/21 08:25:38;;;;;;;54.42;35.97;;;;;;;7.22;50.47;94438.56;4976955;28;20043;-77
2021/01/21 08:28:04;;;;;;;60.83;38.15;;;;;;;7.21;50.33;94435.16;4963599;28;20042;-77
2021/01/21 08:30:30;;;;;;;52.85;32.88;;;;;;;7.33;49.93;94445.50;4958121;28;20317;-76
2021/01/21 08:33:20;;;;;;;47.97;32.55;;;;;;;7.46;50.37;94446.91;4963634;28;20027;-76
2021/01/21 08:35:53;;;;;;;55.65;35.00;;;;;;;7.60;50.67;94454.09;4962322;28;20027;-77
2021/01/21 08:38:35;;;;;;;53.55;32.83;;;;;;;7.83;49.75;94453.69;4967002;28;20026;-76
2021/01/21 08:41:02;;;;;;;55.10;30.33;;;;;;;7.74;48.25;94438.66;4961286;28;20034;-76
2021/01/21 08:43:29;;;;;;;49.47;27.25;;;;;;;7.82;48.17;94448.69;4962062;28;20081;-77
2021/01/21 08:45:55;;;;;;;37.80;25.23;;;;;;;7.85;47.71;94445.56;4954363;28;20057;-77
2021/01/21 08:48:32;;;;;;;36.45;22.52;;;;;;;7.90;47.32;94450.84;4954339;28;20043;-77
2021/01/21 08:50:58;;;;;;;41.67;20.50;;;;;;;7.93;46.92;94437.16;4961579;28;20815;-77
2021/01/21 08:53:27;;;;;;;29.77;19.70;;;;;;;8.00;46.94;94432.47;4959347;28;20038;-77
2021/01/21 08:55:54;;;;;;;33.83;21.83;;;;;;;8.08;46.75;94449.59;4957295;28;20054;-78
2021/01/21 08:58:27;;;;;;;28.23;16.98;;;;;;;8.11;46.25;94428.81;4955558;28;20085;-77
2021/01/21 09:01:00;;;;;;;27.77;18.60;;;;;;;8.16;46.37;94443.88;4961814;28;20046;-78
2021/01/21 09:03:50;;;;;;;30.38;19.85;;;;;;;8.34;46.35;94434.75;4960683;28;20575;-78
2021/01/21 09:06:23;;;;;;;35.63;21.63;;;;;;;8.34;46.14;94440.00;4956656;28;20089;-77
2021/01/21 09:08:56;;;;;;;61.72;30.58;;;;;;;8.51;46.74;94441.34;4959051;28;20022;-78
2021/01/21 09:11:24;;;;;;;37.78;24.48;;;;;;;8.48;45.88;94454.25;4961666;28;20018;-76
2021/01/21 09:13:50;;;;;;;33.83;20.60;;;;;;;8.52;46.68;94428.97;4960029;28;20415;-77
2021/01/21 09:16:15;;;;;;;31.85;20.08;;;;;;;8.63;45.75;94435.88;4961098;28;20045;-77
2021/01/21 09:18:45;;;;;;;33.85;19.45;;;;;;;8.77;46.26;94436.94;4960657;28;20050;-77
2021/01/21 09:21:14;;;;;;;28.27;19.02;;;;;;;8.75;45.11;94433.78;4960770;28;20130;-77
2021/01/21 09:23:41;;;;;;;26.23;18.15;;;;;;;8.82;45.21;94431.69;4960537;28;20547;-77
2021/01/21 09:26:14;;;;;;;28.08;18.00;;;;;;;8.80;45.07;94431.13;4965777;28;20069;-77
2021/01/21 09:28:57;;;;;;;34.30;20.13;;;;;;;8.86;45.97;94410.84;4957078;28;20045;-77
2021/01/21 09:31:23;;;;;;;29.15;19.13;;;;;;;8.87;45.10;94421.16;4963804;28;20035;-77
2021/01/21 09:33:50;;;;;;;40.95;21.27;;;;;;;8.92;44.87;94407.97;4964275;28;20047;-77
2021/01/21 09:36:16;;;;;;;25.73;18.40;;;;;;;9.03;44.53;94409.56;4963032;28;20027;-76
2021/01/21 09:38:41;;;;;;;30.50;17.63;;;;;;;8.89;44.48;94419.06;4968364;28;20342;-77
2021/01/21 09:41:07;;;;;;;30.92;18.95;;;;;;;9.00;44.13;94414.56;4964810;28;20045;-77
2021/01/21 09:43:33;;;;;;;28.27;18.85;;;;;;;8.88;44.25;94412.19;4962507;28;20051;-77
2021/01/21 09:45:58;;;;;;;32.17;19.55;;;;;;;8.92;44.32;94407.97;4964740;28;20606;-77
2021/01/21 09:48:24;;;;;;;29.92;19.13;;;;;;;8.90;44.12;94388.19;4967470;28;20549;-76
2021/01/21 09:50:55;;;;;;;29.58;19.73;;;;;;;8.88;44.29;94400.84;4973526;28;20225;-76
2021/01/21 09:53:21;;;;;;;36.75;21.40;;;;;;;8.92;44.33;94394.78;4964205;28;20042;-77
2021/01/21 09:55:47;;;;;;;29.83;19.15;;;;;;;8.76;44.05;94400.31;4976818;28;20048;-76
2021/01/21 09:58:13;;;;;;;33.17;19.17;;;;;;;8.73;44.13;94385.81;4964683;28;20058;-77
2021/01/21 10:00:39;;;;;;;29.48;19.17;;;;;;;8.74;44.44;94379.50;4962155;28;20507;-77
2021/01/21 10:03:05;;;;;;;32.47;20.60;;;;;;;8.76;44.95;94377.38;4960450;28;20058;-77
2021/01/21 10:05:30;;;;;;;27.55;19.42;;;;;;;8.81;44.60;94381.88;4964226;28;20031;-77
2021/01/21 10:07:56;;;;;;;31.63;18.25;;;;;;;8.88;44.15;94380.56;4976281;28;20069;-76
2021/01/21 10:10:22;;;;;;;29.17;16.48;;;;;;;8.88;44.36;94370.03;4947945;28;20607;-77
2021/01/21 10:12:47;;;;;;;31.55;17.83;;;;;;;8.91;44.29;94368.69;4959870;28;20074;-77
2021/01/21 10:15:13;;;;;;;30.10;17.13;;;;;;;8.97;44.52;94368.44;4961040;28;20069;-77
2021/01/21 10:17:38;;;;;;;30.08;18.00;;;;;;;9.08;44.37;94391.13;4964806;28;20038;-77
2021/01/21 10:20:05;;;;;;;34.58;19.52;;;;;;;9.08;44.17;94370.03;4963991;28;20129;-77
2021/01/21 10:22:30;;;;;;;27.80;16.95;;;;;;;9.01;44.21;94356.31;4960238;28;20042;-76
2021/01/21 10:24:55;;;;;;;36.47;21.33;;;;;;;9.01;44.58;94369.47;4962736;28;20050;-77
2021/01/21 10:27:26;;;;;;;42.72;23.63;;;;;;;9.07;44.73;94362.38;4961750;28;20038;-76
2021/01/21 10:29:52;;;;;;;57.33;29.33;;;;;;;9.07;45.24;94370.28;4963172;28;20027;-77
2021/01/21 10:32:18;;;;;;;51.35;26.02;;;;;;;9.05;45.24;94349.44;4970663;28;20072;-77
2021/01/21 10:34:43;;;;;;;57.72;32.63;;;;;;;9.04;45.17;94363.66;4962894;28;20030;-77
2021/01/21 10:37:08;;;;;;;45.38;26.50;;;;;;;9.12;44.87;94349.19;4966760;28;20519;-77
2021/01/21 10:39:34;;;;;;;36.55;22.73;;;;;;;9.06;45.15;94335.22;4961485;28;20134;-77
2021/01/21 10:41:59;;;;;;;36.85;22.00;;;;;;;9.28;44.37;94331.50;4965788;28;20035;-77
2021/01/21 10:44:25;;;;;;;43.28;21.52;;;;;;;9.26;43.93;94354.69;4962716;28;20121;-76
2021/01/21 10:46:50;;;;;;;35.58;22.25;;;;;;;9.24;43.81;94325.94;4967071;28;20034;-77
2021/01/21 10:49:16;;;;;;;35.45;20.75;;;;;;;9.23;43.92;94345.47;4960976;28;20046;-77
2021/01/21 10:51:41;;;;;;;31.55;19.92;;;;;;;9.30;43.73;94326.72;4963921;28;20039;-77
2021/01/21 10:54:07;;;;;;;33.78;20.52;;;;;;;9.39;44.38;94323.28;4967990;28;20514;-77
2021/01/21 10:56:33;;;;;;;33.47;18.67;;;;;;;9.46;44.52;94323.00;4966140;28;20027;-76
2021/01/21 10:59:01;;;;;;;26.10;17.00;;;;;;;9.45;43.47;94311.66;4965228;28;20050;-77
2021/01/21 11:01:27;;;;;;;34.67;18.92;;;;;;;9.58;43.42;94312.94;4963491;28;20053;-76
2021/01/21 11:03:52;;;;;;;30.45;16.88;;;;;;;9.53;43.13;94318.22;4966660;28;20412;-77
2021/01/21 11:06:18;;;;;;;30.35;18.35;;;;;;;9.50;43.17;94309.00;4966941;28;20467;-76
2021/01/21 11:08:43;;;;;;;28.30;18.27;;;;;;;9.62;43.38;94310.56;4966623;28;20044;-77
2021/01/21 11:11:08;;;;;;;32.65;17.23;;;;;;;9.54;43.11;94306.59;4961892;28;20109;-76
2021/01/21 11:13:34;;;;;;;31.63;19.27;;;;;;;9.49;43.05;94301.34;4957642;28;20130;-77
2021/01/21 11:15:59;;;;;;;32.45;19.02;;;;;;;9.45;43.20;94306.38;4963260;28;20050;-76
2021/01/21 11:18:25;;;;;;;33.28;19.67;;;;;;;9.57;43.37;94300.81;4962049;28;20113;-77
2021/01/21 11:20:50;;;;;;;41.42;18.73;;;;;;;9.47;43.46;94292.94;4964335;28;20029;-77
2021/01/21 11:23:16;;;;;;;23.73;16.45;;;;;;;9.50;43.29;94284.47;4962463;28;20034;-76
2021/01/21 11:25:42;;;;;;;31.38;18.63;;;;;;;9.37;43.98;94295.59;4944364;28;20081;-77
2021/01/21 11:28:08;;;;;;;32.08;18.77;;;;;;;9.37;43.79;94290.31;4950186;28;20043;-77
2021/01/21 11:30:34;;;;;;;41.45;23.17;;;;;;;9.49;43.57;94286.31;4928415;28;671656;-76